createdAt,value
2023-04-18T00:00:03.302Z,202.71
2023-04-18T00:01:03.292Z,201.37
2023-04-18T00:02:03.456Z,201.61
2023-04-18T00:03:04.526Z,201.97
2023-04-18T00:04:03.485Z,202.27
2023-04-18T00:05:03.366Z,202.65
2023-04-18T00:06:03.277Z,206.63
2023-04-18T00:07:03.282Z,205.64
2023-04-18T00:08:03.261Z,204.05
2023-04-18T00:09:03.293Z,203.22
2023-04-18T00:10:03.250Z,202.17
2023-04-18T00:11:03.243Z,202.24
2023-04-18T00:12:03.239Z,203.03
2023-04-18T00:13:03.223Z,201.12
2023-04-18T00:14:03.338Z,200.63
2023-04-18T00:15:03.245Z,202.87
2023-04-18T00:16:03.292Z,201.82
2023-04-18T00:17:03.373Z,199.10
2023-04-18T00:18:03.432Z,204.16
2023-04-18T00:19:03.386Z,198.93
2023-04-18T00:20:03.428Z,204.26
2023-04-18T00:21:03.456Z,203.59
2023-04-18T00:22:03.494Z,201.12
2023-04-18T00:23:03.519Z,202.00
2023-04-18T00:24:03.575Z,201.74
2023-04-18T00:25:03.613Z,201.14
2023-04-18T00:26:03.641Z,199.90
2023-04-18T00:27:03.676Z,202.18
2023-04-18T00:28:03.706Z,201.17
2023-04-18T00:29:03.761Z,203.74
2023-04-18T00:30:03.797Z,201.51
2023-04-18T00:31:03.854Z,200.20
2023-04-18T00:32:03.853Z,199.60
2023-04-18T00:33:03.930Z,200.97
2023-04-18T00:34:03.871Z,201.18
2023-04-18T00:35:03.871Z,201.46
2023-04-18T00:36:03.962Z,201.66
2023-04-18T00:37:03.841Z,201.71
2023-04-18T00:38:03.829Z,200.60
2023-04-18T00:39:03.841Z,199.88
2023-04-18T00:40:03.808Z,199.75
2023-04-18T00:41:03.819Z,199.83
2023-04-18T00:42:03.793Z,202.88
2023-04-18T00:43:03.774Z,195.54
2023-04-18T00:44:03.791Z,199.66
2023-04-18T00:45:03.772Z,198.59
2023-04-18T00:46:03.816Z,198.60
2023-04-18T00:47:03.820Z,199.74
2023-04-18T00:48:03.926Z,200.92
2023-04-18T00:49:03.899Z,200.08
2023-04-18T00:50:03.925Z,197.57
2023-04-18T00:51:03.962Z,198.41
2023-04-18T00:52:03.995Z,196.83
2023-04-18T00:53:04.033Z,197.28
2023-04-18T00:54:04.068Z,200.29
2023-04-18T00:55:04.134Z,197.80
2023-04-18T00:56:04.142Z,197.30
2023-04-18T00:57:04.186Z,198.49
2023-04-18T00:58:04.217Z,200.41
2023-04-18T00:59:04.270Z,199.43
2023-04-18T01:00:04.304Z,200.83
2023-04-18T01:01:04.363Z,199.94
2023-04-18T01:02:04.405Z,199.74
2023-04-18T01:03:04.550Z,197.52
2023-04-18T01:04:04.603Z,198.82
2023-04-18T01:05:04.487Z,197.29
2023-04-18T01:06:04.568Z,198.86
2023-04-18T01:07:04.507Z,198.97
2023-04-18T01:08:04.504Z,199.28
2023-04-18T01:09:04.509Z,199.62
2023-04-18T01:10:04.488Z,200.30
2023-04-18T01:11:04.489Z,199.06
2023-04-18T01:12:04.471Z,198.97
2023-04-18T01:13:04.466Z,198.03
2023-04-18T01:14:04.472Z,200.58
2023-04-18T01:15:04.489Z,201.44
2023-04-18T01:16:04.477Z,196.85
2023-04-18T01:17:04.447Z,198.47
2023-04-18T01:18:04.459Z,199.74
2023-04-18T01:19:04.463Z,200.89
2023-04-18T01:20:04.517Z,198.70
2023-04-18T01:21:04.554Z,195.90
2023-04-18T01:22:04.576Z,199.67
2023-04-18T01:23:04.611Z,196.10
2023-04-18T01:24:04.652Z,198.33
2023-04-18T01:25:04.693Z,198.90
2023-04-18T01:26:04.777Z,197.88
2023-04-18T01:27:04.773Z,196.93
2023-04-18T01:28:04.848Z,196.23
2023-04-18T01:29:04.853Z,198.43
2023-04-18T01:30:04.880Z,197.00
2023-04-18T01:31:04.948Z,200.47
2023-04-18T01:32:04.981Z,196.94
2023-04-18T01:33:05.056Z,194.14
2023-04-18T01:34:05.025Z,198.26
2023-04-18T01:35:05.054Z,198.89
2023-04-18T01:36:05.092Z,196.96
2023-04-18T01:37:05.120Z,200.57
2023-04-18T01:38:05.167Z,197.01
2023-04-18T01:39:05.215Z,197.73
2023-04-18T01:40:05.257Z,196.76
2023-04-18T01:41:05.286Z,195.95
2023-04-18T01:42:05.323Z,198.77
2023-04-18T01:43:05.368Z,195.88
2023-04-18T01:44:05.366Z,196.10
2023-04-18T01:45:05.366Z,196.26
2023-04-18T01:46:05.355Z,197.37
2023-04-18T01:47:05.331Z,195.93
2023-04-18T01:48:05.312Z,198.33
2023-04-18T01:49:05.311Z,199.40
2023-04-18T01:50:05.310Z,197.22
2023-04-18T01:51:05.299Z,197.36
2023-04-18T01:52:05.291Z,196.69
2023-04-18T01:53:05.272Z,196.99
2023-04-18T01:54:05.258Z,197.88
2023-04-18T01:55:05.294Z,195.00
2023-04-18T01:56:05.339Z,195.09
2023-04-18T01:57:05.370Z,197.44
2023-04-18T01:58:05.393Z,195.84
2023-04-18T01:59:05.441Z,199.14
2023-04-18T02:00:05.474Z,196.26
2023-04-18T02:01:05.514Z,196.47
2023-04-18T02:02:05.497Z,196.47
2023-04-18T02:03:05.638Z,196.79
2023-04-18T02:04:05.483Z,197.51
2023-04-18T02:05:05.448Z,196.65
2023-04-18T02:06:05.443Z,199.33
2023-04-18T02:07:05.420Z,195.62
2023-04-18T02:08:05.425Z,198.20
2023-04-18T02:09:05.434Z,197.52
2023-04-18T02:10:05.392Z,197.02
2023-04-18T02:11:05.462Z,194.79
2023-04-18T02:12:05.378Z,194.66
2023-04-18T02:13:05.389Z,195.38
2023-04-18T02:14:05.427Z,192.79
2023-04-18T02:15:05.474Z,194.76
2023-04-18T02:16:05.537Z,193.04
2023-04-18T02:17:05.562Z,193.68
2023-04-18T02:18:05.624Z,193.01
2023-04-18T02:19:05.627Z,194.41
2023-04-18T02:20:05.674Z,194.73
2023-04-18T02:21:05.718Z,195.02
2023-04-18T02:22:05.763Z,192.73
2023-04-18T02:23:05.794Z,197.07
2023-04-18T02:24:05.834Z,193.32
2023-04-18T02:25:05.878Z,193.74
2023-04-18T02:26:05.909Z,194.18
2023-04-18T02:27:05.951Z,195.17
2023-04-18T02:28:06.003Z,193.46
2023-04-18T02:29:06.020Z,195.54
2023-04-18T02:30:06.062Z,191.52
2023-04-18T02:31:06.102Z,193.45
2023-04-18T02:32:06.234Z,192.54
2023-04-18T02:33:06.185Z,193.18
2023-04-18T02:34:06.212Z,191.36
2023-04-18T02:35:06.254Z,192.24
2023-04-18T02:36:06.298Z,193.94
2023-04-18T02:37:06.289Z,194.07
2023-04-18T02:38:06.290Z,194.49
2023-04-18T02:39:06.292Z,195.09
2023-04-18T02:40:06.284Z,192.38
2023-04-18T02:41:06.328Z,191.33
2023-04-18T02:42:06.280Z,192.96
2023-04-18T02:43:06.273Z,192.99
2023-04-18T02:44:06.264Z,190.40
2023-04-18T02:45:06.250Z,191.52
2023-04-18T02:46:06.280Z,193.23
2023-04-18T02:47:06.244Z,191.88
2023-04-18T02:48:06.302Z,193.65
2023-04-18T02:49:06.306Z,194.62
2023-04-18T02:50:06.366Z,194.48
2023-04-18T02:51:06.481Z,191.80
2023-04-18T02:52:06.532Z,191.20
2023-04-18T02:53:06.521Z,190.38
2023-04-18T02:54:06.527Z,192.76
2023-04-18T02:55:06.568Z,191.76
2023-04-18T02:56:06.651Z,189.99
2023-04-18T02:57:06.627Z,190.71
2023-04-18T02:58:06.847Z,189.25
2023-04-18T02:59:06.782Z,187.88
2023-04-18T03:00:06.851Z,193.27
2023-04-18T03:01:06.884Z,190.38
2023-04-18T03:02:06.965Z,190.99
2023-04-18T03:03:06.902Z,191.94
2023-04-18T03:04:06.929Z,192.77
2023-04-18T03:05:06.994Z,193.56
2023-04-18T03:06:07.030Z,190.90
2023-04-18T03:07:07.037Z,190.25
2023-04-18T03:08:07.088Z,188.20
2023-04-18T03:09:07.152Z,190.91
2023-04-18T03:10:07.169Z,189.47
2023-04-18T03:11:07.227Z,193.61
2023-04-18T03:12:07.259Z,192.91
2023-04-18T03:13:07.407Z,190.83
2023-04-18T03:14:07.340Z,186.12
2023-04-18T03:15:07.399Z,190.54
2023-04-18T03:16:07.541Z,187.54
2023-04-18T03:17:07.468Z,188.43
2023-04-18T03:18:07.597Z,190.23
2023-04-18T03:19:07.555Z,190.90
2023-04-18T03:20:07.597Z,188.52
2023-04-18T03:21:07.662Z,188.56
2023-04-18T03:22:07.659Z,192.40
2023-04-18T03:23:07.710Z,190.19
2023-04-18T03:24:08.111Z,188.17
2023-04-18T03:25:07.765Z,190.46
2023-04-18T03:26:07.832Z,190.62
2023-04-18T03:27:07.845Z,188.52
2023-04-18T03:28:07.895Z,189.72
2023-04-18T03:29:07.922Z,189.31
2023-04-18T03:30:07.961Z,188.57
2023-04-18T03:31:08.022Z,191.01
2023-04-18T03:32:08.066Z,189.60
2023-04-18T03:33:08.098Z,188.62
2023-04-18T03:34:08.134Z,189.04
2023-04-18T03:35:08.197Z,186.34
2023-04-18T03:36:08.220Z,186.86
2023-04-18T03:37:08.267Z,188.36
2023-04-18T03:38:08.314Z,188.45
2023-04-18T03:39:08.332Z,191.42
2023-04-18T03:40:08.372Z,188.27
2023-04-18T03:41:08.433Z,189.29
2023-04-18T03:42:08.461Z,187.96
2023-04-18T03:43:08.493Z,189.99
2023-04-18T03:44:08.468Z,190.13
2023-04-18T03:45:08.468Z,190.30
2023-04-18T03:46:08.497Z,188.75
2023-04-18T03:47:08.473Z,190.16
2023-04-18T03:48:08.435Z,190.47
2023-04-18T03:49:08.441Z,190.18
2023-04-18T03:50:08.452Z,188.62
2023-04-18T03:51:08.412Z,188.47
2023-04-18T03:52:08.398Z,186.62
2023-04-18T03:53:08.380Z,186.75
2023-04-18T03:54:08.367Z,186.78
2023-04-18T03:55:08.383Z,187.73
2023-04-18T03:56:08.360Z,185.64
2023-04-18T03:57:08.350Z,188.09
2023-04-18T03:58:08.325Z,187.57
2023-04-18T03:59:08.328Z,191.00
2023-04-18T04:00:08.320Z,186.33
2023-04-18T04:01:08.304Z,187.18
2023-04-18T04:02:08.380Z,188.86
2023-04-18T04:03:08.448Z,187.69
2023-04-18T04:04:08.452Z,185.10
2023-04-18T04:05:08.438Z,188.71
2023-04-18T04:06:08.442Z,182.21
2023-04-18T04:07:08.479Z,187.62
2023-04-18T04:08:08.511Z,190.22
2023-04-18T04:09:08.555Z,187.00
2023-04-18T04:10:08.587Z,186.89
2023-04-18T04:11:08.664Z,189.71
2023-04-18T04:12:08.686Z,186.56
2023-04-18T04:13:08.728Z,184.43
2023-04-18T04:14:08.770Z,186.88
2023-04-18T04:15:08.828Z,184.89
2023-04-18T04:16:08.938Z,183.37
2023-04-18T04:17:08.903Z,183.11
2023-04-18T04:18:09.115Z,185.79
2023-04-18T04:19:08.941Z,185.92
2023-04-18T04:20:08.937Z,186.08
2023-04-18T04:21:08.932Z,187.18
2023-04-18T04:22:08.956Z,186.16
2023-04-18T04:23:08.914Z,186.61
2023-04-18T04:24:08.931Z,183.41
2023-04-18T04:25:08.923Z,185.76
2023-04-18T04:26:08.916Z,187.84
2023-04-18T04:27:08.912Z,185.90
2023-04-18T04:28:08.891Z,185.04
2023-04-18T04:29:08.915Z,186.59
2023-04-18T04:30:09.337Z,185.77
2023-04-18T04:31:09.000Z,187.38
2023-04-18T04:32:09.153Z,184.42
2023-04-18T04:33:09.072Z,185.58
2023-04-18T04:34:09.149Z,186.91
2023-04-18T04:35:09.150Z,185.16
2023-04-18T04:36:09.187Z,186.34
2023-04-18T04:37:09.182Z,186.39
2023-04-18T04:38:09.175Z,186.58
2023-04-18T04:39:09.166Z,186.94
2023-04-18T04:40:09.175Z,187.24
2023-04-18T04:41:09.141Z,188.35
2023-04-18T04:42:09.133Z,187.02
2023-04-18T04:43:09.104Z,184.86
2023-04-18T04:44:09.094Z,186.94
2023-04-18T04:45:09.078Z,183.02
2023-04-18T04:46:09.123Z,188.14
2023-04-18T04:47:09.077Z,185.89
2023-04-18T04:48:09.187Z,183.12
2023-04-18T04:49:09.157Z,188.20
2023-04-18T04:50:09.193Z,181.89
2023-04-18T04:51:09.238Z,185.63
2023-04-18T04:52:09.328Z,185.38
2023-04-18T04:53:09.347Z,185.61
2023-04-18T04:54:09.370Z,184.65
2023-04-18T04:55:09.406Z,185.78
2023-04-18T04:56:09.454Z,185.62
2023-04-18T04:57:09.484Z,183.03
2023-04-18T04:58:09.542Z,183.41
2023-04-18T04:59:09.563Z,183.09
2023-04-18T05:00:09.615Z,185.61
2023-04-18T05:01:09.689Z,185.18
2023-04-18T05:02:09.748Z,186.33
2023-04-18T05:03:09.857Z,184.09
2023-04-18T05:04:09.880Z,183.98
2023-04-18T05:05:09.798Z,184.19
2023-04-18T05:06:09.861Z,187.29
2023-04-18T05:07:09.902Z,186.53
2023-04-18T05:08:09.940Z,184.92
2023-04-18T05:09:09.988Z,181.00
2023-04-18T05:10:10.019Z,183.52
2023-04-18T05:11:10.046Z,184.07
2023-04-18T05:12:10.081Z,182.10
2023-04-18T05:13:10.150Z,183.63
2023-04-18T05:14:10.162Z,182.92
2023-04-18T05:15:10.188Z,184.38
2023-04-18T05:16:10.292Z,182.83
2023-04-18T05:17:10.282Z,183.52
2023-04-18T05:18:10.333Z,182.33
2023-04-18T05:19:10.378Z,183.98
2023-04-18T05:20:10.429Z,183.17
2023-04-18T05:21:10.497Z,182.30
2023-04-18T05:22:10.528Z,180.06
2023-04-18T05:23:10.577Z,182.19
2023-04-18T05:24:10.620Z,181.43
2023-04-18T05:25:10.664Z,182.27
2023-04-18T05:26:10.702Z,183.12
2023-04-18T05:27:10.794Z,181.77
2023-04-18T05:28:10.885Z,179.87
2023-04-18T05:29:10.852Z,180.76
2023-04-18T05:30:10.932Z,180.98
2023-04-18T05:31:10.898Z,181.17
2023-04-18T05:32:10.900Z,180.50
2023-04-18T05:33:10.811Z,181.73
2023-04-18T05:34:10.813Z,181.48
2023-04-18T05:35:10.798Z,180.89
2023-04-18T05:36:10.769Z,181.44
2023-04-18T05:37:10.798Z,181.50
2023-04-18T05:38:10.832Z,177.59
2023-04-18T05:39:10.757Z,182.85
2023-04-18T05:40:10.775Z,182.63
2023-04-18T05:41:10.817Z,178.59
2023-04-18T05:42:10.869Z,178.24
2023-04-18T05:43:10.907Z,181.68
2023-04-18T05:44:10.941Z,180.13
2023-04-18T05:45:10.988Z,179.51
2023-04-18T05:46:11.016Z,179.72
2023-04-18T05:47:10.989Z,180.12
2023-04-18T05:48:11.056Z,179.82
2023-04-18T05:49:10.966Z,179.95
2023-04-18T05:50:10.968Z,180.38
2023-04-18T05:51:11.615Z,179.76
2023-04-18T05:52:10.942Z,179.80
2023-04-18T05:53:10.937Z,180.40
2023-04-18T05:54:10.967Z,180.96
2023-04-18T05:55:10.935Z,181.79
2023-04-18T05:56:10.907Z,180.23
2023-04-18T05:57:10.916Z,179.78
2023-04-18T05:58:10.920Z,179.62
2023-04-18T05:59:10.911Z,179.39
2023-04-18T06:00:10.894Z,178.53
2023-04-18T06:01:10.867Z,177.78
2023-04-18T06:02:10.946Z,179.04
2023-04-18T06:03:11.547Z,180.01
2023-04-18T06:04:11.089Z,178.07
2023-04-18T06:05:10.983Z,178.93
2023-04-18T06:06:10.840Z,177.68
2023-04-18T06:07:10.856Z,179.71
2023-04-18T06:08:10.899Z,175.20
2023-04-18T06:09:10.930Z,177.59
2023-04-18T06:10:10.982Z,177.70
2023-04-18T06:11:11.000Z,179.21
2023-04-18T06:12:11.039Z,177.03
2023-04-18T06:13:11.050Z,177.25
2023-04-18T06:14:11.103Z,177.72
2023-04-18T06:15:11.028Z,178.55
2023-04-18T06:16:11.066Z,176.50
2023-04-18T06:17:11.024Z,182.76
2023-04-18T06:18:11.049Z,176.32
2023-04-18T06:19:10.997Z,176.63
2023-04-18T06:20:10.993Z,177.27
2023-04-18T06:21:11.012Z,177.79
2023-04-18T06:22:10.972Z,179.15
2023-04-18T06:23:11.024Z,177.97
2023-04-18T06:24:10.934Z,177.99
2023-04-18T06:25:11.026Z,181.15
2023-04-18T06:26:10.953Z,179.39
2023-04-18T06:27:24.162Z,179.38
2023-04-18T06:28:11.918Z,179.62
2023-04-18T06:29:10.882Z,179.84
2023-04-18T06:30:10.869Z,180.30
2023-04-18T06:31:10.930Z,181.63
2023-04-18T06:32:10.846Z,182.35
2023-04-18T06:33:10.845Z,179.64
2023-04-18T06:34:10.887Z,181.48
2023-04-18T06:35:10.821Z,182.31
2023-04-18T06:36:10.832Z,184.70
2023-04-18T06:37:10.818Z,178.80
2023-04-18T06:38:10.830Z,182.21
2023-04-18T06:39:10.872Z,180.43
2023-04-18T06:40:10.903Z,180.80
2023-04-18T06:41:10.928Z,178.03
2023-04-18T06:42:10.964Z,182.76
2023-04-18T06:43:11.044Z,180.68
2023-04-18T06:44:11.036Z,180.75
2023-04-18T06:45:11.004Z,181.26
2023-04-18T06:46:11.030Z,182.15
2023-04-18T06:47:10.978Z,178.28
2023-04-18T06:48:10.967Z,180.80
2023-04-18T06:49:10.970Z,181.07
2023-04-18T06:50:10.952Z,178.98
2023-04-18T06:51:10.920Z,181.00
2023-04-18T06:52:10.907Z,181.15
2023-04-18T06:53:10.894Z,182.33
2023-04-18T06:54:10.929Z,184.08
2023-04-18T06:55:10.881Z,186.13
2023-04-18T06:56:10.878Z,178.88
2023-04-18T06:57:11.097Z,185.14
2023-04-18T06:58:10.858Z,178.49
2023-04-18T06:59:10.949Z,175.83
2023-04-18T07:00:10.831Z,173.86
2023-04-18T07:01:10.868Z,176.87
2023-04-18T07:02:10.902Z,170.72
2023-04-18T07:03:11.510Z,174.85
2023-04-18T07:04:11.074Z,174.66
2023-04-18T07:05:10.971Z,168.17
2023-04-18T07:06:11.059Z,172.43
2023-04-18T07:07:11.045Z,169.19
2023-04-18T07:08:11.104Z,169.04
2023-04-18T07:09:11.139Z,170.71
2023-04-18T07:10:11.187Z,171.09
2023-04-18T07:11:11.212Z,168.18
2023-04-18T07:12:11.251Z,172.21
2023-04-18T07:13:11.287Z,170.95
2023-04-18T07:14:11.460Z,171.13
2023-04-18T07:15:11.359Z,169.50
2023-04-18T07:16:11.426Z,167.71
2023-04-18T07:17:11.466Z,164.68
2023-04-18T07:18:11.494Z,163.85
2023-04-18T07:19:11.511Z,161.91
2023-04-18T07:20:13.022Z,163.40
2023-04-18T07:21:11.766Z,163.28
2023-04-18T07:22:11.831Z,164.35
2023-04-18T07:23:11.823Z,160.10
2023-04-18T07:24:12.220Z,160.20
2023-04-18T07:25:11.829Z,157.83
2023-04-18T07:26:11.815Z,159.08
2023-04-18T07:27:11.791Z,162.15
2023-04-18T07:28:11.783Z,162.80
2023-04-18T07:29:12.556Z,164.05
2023-04-18T07:30:11.783Z,162.59
2023-04-18T07:31:11.871Z,154.25
2023-04-18T07:32:11.735Z,157.09
2023-04-18T07:33:11.742Z,154.81
2023-04-18T07:34:11.875Z,157.72
2023-04-18T07:35:11.733Z,154.77
2023-04-18T07:36:11.711Z,151.81
2023-04-18T07:37:13.435Z,152.11
2023-04-18T07:38:11.726Z,150.05
2023-04-18T07:39:11.732Z,151.82
2023-04-18T07:40:11.726Z,151.46
2023-04-18T07:41:11.827Z,151.49
2023-04-18T07:42:11.694Z,149.86
2023-04-18T07:43:11.690Z,151.89
2023-04-18T07:44:11.740Z,150.51
2023-04-18T07:45:11.780Z,149.00
2023-04-18T07:46:11.676Z,151.30
2023-04-18T07:47:11.666Z,145.73
2023-04-18T07:48:11.719Z,144.01
2023-04-18T07:49:11.775Z,148.38
2023-04-18T07:50:11.614Z,144.21
2023-04-18T07:51:11.618Z,142.07
2023-04-18T07:52:11.603Z,140.06
2023-04-18T07:53:11.768Z,139.03
2023-04-18T07:54:11.584Z,140.94
2023-04-18T07:55:11.563Z,138.94
2023-04-18T07:56:11.563Z,138.85
2023-04-18T07:57:11.528Z,139.04
2023-04-18T07:58:11.525Z,139.40
2023-04-18T07:59:11.612Z,136.94
2023-04-18T08:00:11.504Z,136.39
2023-04-18T08:01:11.748Z,132.05
2023-04-18T08:02:11.494Z,129.57
2023-04-18T08:03:11.586Z,130.25
2023-04-18T08:04:11.525Z,132.78
2023-04-18T08:05:11.542Z,132.83
2023-04-18T08:06:11.418Z,132.53
2023-04-18T08:07:11.401Z,133.61
2023-04-18T08:08:11.391Z,129.65
2023-04-18T08:09:11.464Z,129.59
2023-04-18T08:10:11.349Z,121.51
2023-04-18T08:11:11.320Z,125.39
2023-04-18T08:12:11.322Z,126.94
2023-04-18T08:13:11.284Z,124.37
2023-04-18T08:14:11.285Z,127.27
2023-04-18T08:15:11.288Z,129.14
2023-04-18T08:16:11.295Z,125.16
2023-04-18T08:17:11.424Z,128.12
2023-04-18T08:18:11.254Z,130.82
2023-04-18T08:19:11.383Z,126.46
2023-04-18T08:20:11.209Z,125.17
2023-04-18T08:21:11.219Z,121.79
2023-04-18T08:22:11.229Z,120.45
2023-04-18T08:23:13.017Z,116.47
2023-04-18T08:24:11.306Z,117.06
2023-04-18T08:25:11.241Z,117.11
2023-04-18T08:26:11.242Z,115.55
2023-04-18T08:27:11.212Z,115.21
2023-04-18T08:28:11.202Z,110.67
2023-04-18T08:29:11.255Z,112.88
2023-04-18T08:30:11.200Z,113.65
2023-04-18T08:31:11.242Z,108.80
2023-04-18T08:32:11.213Z,108.98
2023-04-18T08:33:11.180Z,109.17
2023-04-18T08:34:11.161Z,111.17
2023-04-18T08:35:11.132Z,113.08
2023-04-18T08:36:11.156Z,112.99
2023-04-18T08:37:11.103Z,113.46
2023-04-18T08:38:11.111Z,116.00
2023-04-18T08:39:11.188Z,113.31
2023-04-18T08:40:11.102Z,107.72
2023-04-18T08:41:11.074Z,107.57
2023-04-18T08:42:11.062Z,106.01
2023-04-18T08:43:11.070Z,103.37
2023-04-18T08:44:11.153Z,106.80
2023-04-18T08:45:11.034Z,108.03
2023-04-18T08:46:11.066Z,103.47
2023-04-18T08:47:10.999Z,102.93
2023-04-18T08:48:11.004Z,107.78
2023-04-18T08:49:12.012Z,118.83
2023-04-18T08:50:11.177Z,119.94
2023-04-18T08:51:10.997Z,122.92
2023-04-18T08:52:10.978Z,119.79
2023-04-18T08:53:10.964Z,119.99
2023-04-18T08:54:11.051Z,120.21
2023-04-18T08:55:10.958Z,121.50
2023-04-18T08:56:10.944Z,121.82
2023-04-18T08:57:10.921Z,121.98
2023-04-18T08:58:10.895Z,123.04
2023-04-18T08:59:10.892Z,122.51
2023-04-18T09:00:10.901Z,122.28
2023-04-18T09:01:10.917Z,123.44
2023-04-18T09:02:10.902Z,124.56
2023-04-18T09:03:10.952Z,119.87
2023-04-18T09:04:10.849Z,117.64
2023-04-18T09:05:10.910Z,120.39
2023-04-18T09:06:10.824Z,123.30
2023-04-18T09:07:10.810Z,122.63
2023-04-18T09:08:10.820Z,120.85
2023-04-18T09:09:10.835Z,125.46
2023-04-18T09:10:10.781Z,125.82
2023-04-18T09:11:10.761Z,121.15
2023-04-18T09:12:10.747Z,118.25
2023-04-18T09:13:10.771Z,121.21
2023-04-18T09:14:10.849Z,121.17
2023-04-18T09:15:10.817Z,119.19
2023-04-18T09:16:10.845Z,122.99
2023-04-18T09:17:10.824Z,125.33
2023-04-18T09:18:10.888Z,127.00
2023-04-18T09:19:11.079Z,125.93
2023-04-18T09:20:10.901Z,123.52
2023-04-18T09:21:10.972Z,123.94
2023-04-18T09:22:10.951Z,122.49
2023-04-18T09:23:11.485Z,121.10
2023-04-18T09:24:11.067Z,122.34
2023-04-18T09:25:11.007Z,121.08
2023-04-18T09:26:11.028Z,120.76
2023-04-18T09:27:11.009Z,123.46
2023-04-18T09:28:11.037Z,121.92
2023-04-18T09:29:11.128Z,124.00
2023-04-18T09:30:11.069Z,124.20
2023-04-18T09:31:11.137Z,124.76
2023-04-18T09:32:11.092Z,122.80
2023-04-18T09:33:11.130Z,126.20
2023-04-18T09:34:11.199Z,124.60
2023-04-18T09:35:11.148Z,133.91
2023-04-18T09:36:11.163Z,141.61
2023-04-18T09:37:11.332Z,145.92
2023-04-18T09:38:11.228Z,145.46
2023-04-18T09:39:11.250Z,137.49
2023-04-18T09:40:11.309Z,116.67
2023-04-18T09:41:11.288Z,87.55
2023-04-18T09:42:11.315Z,73.88
2023-04-18T09:43:11.324Z,72.86
2023-04-18T09:44:14.317Z,74.73
2023-04-18T09:45:11.355Z,82.08
2023-04-18T09:46:11.387Z,82.94
2023-04-18T09:47:11.349Z,78.28
2023-04-18T09:48:11.322Z,72.45
2023-04-18T09:49:11.444Z,64.85
2023-04-18T09:50:11.324Z,67.97
2023-04-18T09:51:11.322Z,72.81
2023-04-18T09:52:11.289Z,63.06
2023-04-18T09:53:11.356Z,59.37
2023-04-18T09:54:11.444Z,40.20
2023-04-18T09:55:11.278Z,25.00
2023-04-18T09:56:11.246Z,25.00
2023-04-18T09:57:11.274Z,25.08
2023-04-18T09:58:11.235Z,27.30
2023-04-18T09:59:11.274Z,29.90
2023-04-18T10:00:11.226Z,26.88
2023-04-18T10:01:11.238Z,32.24
2023-04-18T10:02:11.250Z,28.06
2023-04-18T10:03:11.305Z,33.80
2023-04-18T10:04:11.265Z,34.17
2023-04-18T10:05:11.255Z,34.56
2023-04-18T10:06:11.161Z,0.00
2023-04-18T10:07:11.159Z,0.00
2023-04-18T10:08:11.174Z,0.00
2023-04-18T10:10:30.206Z,25.00
2023-04-18T10:11:30.218Z,25.00
2023-04-18T10:12:30.232Z,25.00
2023-04-18T10:13:30.294Z,25.00
2023-04-18T10:14:30.265Z,25.00
2023-04-18T10:15:30.276Z,25.00
2023-04-18T10:16:30.340Z,25.00
2023-04-18T10:17:30.333Z,25.00
2023-04-18T10:18:30.327Z,25.00
2023-04-18T10:19:30.293Z,34.54
2023-04-18T10:20:30.270Z,41.14
2023-04-18T10:21:30.283Z,46.01
2023-04-18T10:22:30.282Z,48.06
2023-04-18T10:23:30.301Z,50.83
2023-04-18T10:24:30.261Z,51.69
2023-04-18T10:25:30.392Z,56.85
2023-04-18T10:26:30.279Z,59.37
2023-04-18T10:27:30.262Z,59.29
2023-04-18T10:28:30.270Z,62.30
2023-04-18T10:29:31.229Z,70.22
2023-04-18T10:30:30.314Z,73.32
2023-04-18T10:31:30.338Z,73.57
2023-04-18T10:32:30.286Z,73.71
2023-04-18T10:33:32.239Z,74.46
2023-04-18T10:34:30.391Z,76.89
2023-04-18T10:35:30.403Z,82.69
2023-04-18T10:36:30.453Z,86.02
2023-04-18T10:37:30.431Z,86.35
2023-04-18T10:38:30.446Z,88.01
2023-04-18T10:39:30.458Z,91.07
2023-04-18T10:40:30.470Z,88.95
2023-04-18T10:41:30.462Z,88.97
2023-04-18T10:42:30.458Z,86.77
2023-04-18T10:43:30.461Z,88.13
2023-04-18T10:44:30.461Z,89.06
2023-04-18T10:45:30.505Z,89.02
2023-04-18T10:46:32.425Z,89.24
2023-04-18T10:47:30.580Z,91.28
2023-04-18T10:48:30.451Z,94.82
2023-04-18T10:49:32.633Z,95.25
2023-04-18T10:50:30.444Z,94.96
2023-04-18T10:51:30.459Z,97.20
2023-04-18T10:52:30.469Z,97.63
2023-04-18T10:53:30.506Z,97.35
2023-04-18T10:54:30.484Z,99.22
2023-04-18T10:55:30.497Z,96.78
2023-04-18T10:56:30.524Z,97.13
2023-04-18T10:57:30.512Z,98.12
2023-04-18T10:58:30.633Z,101.99
2023-04-18T10:59:30.619Z,101.07
2023-04-18T11:00:30.642Z,99.68
2023-04-18T11:01:32.648Z,101.12
2023-04-18T11:02:30.735Z,101.53
2023-04-18T11:03:30.719Z,107.30
2023-04-18T11:04:30.686Z,107.17
2023-04-18T11:05:30.633Z,107.05
2023-04-18T11:06:30.630Z,107.08
2023-04-18T11:07:30.652Z,107.33
2023-04-18T11:08:30.635Z,109.00
2023-04-18T11:09:30.671Z,111.02
2023-04-18T11:10:30.660Z,114.30
2023-04-18T11:11:30.648Z,110.15
2023-04-18T11:12:30.638Z,107.79
2023-04-18T11:13:30.641Z,108.06
2023-04-18T11:14:30.753Z,109.35
2023-04-18T11:15:31.143Z,112.59
2023-04-18T11:16:30.693Z,116.65
2023-04-18T11:17:30.681Z,125.08
2023-04-18T11:18:30.639Z,132.61
2023-04-18T11:19:30.620Z,125.39
2023-04-18T11:20:30.634Z,123.29
2023-04-18T11:21:30.949Z,128.96
2023-04-18T11:22:30.618Z,126.73
2023-04-18T11:23:30.624Z,122.31
2023-04-18T11:24:30.629Z,131.71
2023-04-18T11:25:30.683Z,135.39
2023-04-18T11:26:30.638Z,133.18
2023-04-18T11:27:30.641Z,136.09
2023-04-18T11:28:30.620Z,138.66
2023-04-18T11:29:30.606Z,132.64
2023-04-18T11:30:30.613Z,134.49
2023-04-18T11:31:30.632Z,131.53
2023-04-18T11:32:30.675Z,137.93
2023-04-18T11:33:30.619Z,147.02
2023-04-18T11:34:30.618Z,151.04
2023-04-18T11:35:30.612Z,150.73
2023-04-18T11:36:30.657Z,153.03
2023-04-18T11:37:30.687Z,154.04
2023-04-18T11:38:30.730Z,151.25
2023-04-18T11:39:30.723Z,156.99
2023-04-18T11:40:30.730Z,162.62
2023-04-18T11:41:30.757Z,157.94
2023-04-18T11:42:30.729Z,159.74
2023-04-18T11:43:30.767Z,154.93
2023-04-18T11:44:30.793Z,151.76
2023-04-18T11:45:30.877Z,144.10
2023-04-18T11:46:30.900Z,144.48
2023-04-18T11:47:30.877Z,146.24
2023-04-18T11:48:30.833Z,147.98
2023-04-18T11:49:30.849Z,151.49
2023-04-18T11:50:30.833Z,156.52
2023-04-18T11:51:30.854Z,145.44
2023-04-18T11:52:30.826Z,151.18
2023-04-18T11:53:30.852Z,151.79
2023-04-18T11:54:30.810Z,151.52
2023-04-18T11:55:30.823Z,146.47
2023-04-18T11:56:30.840Z,150.06
2023-04-18T11:57:30.820Z,155.49
2023-04-18T11:58:30.827Z,155.83
2023-04-18T11:59:30.836Z,148.02
2023-04-18T12:00:30.858Z,156.58
2023-04-18T12:01:30.895Z,153.30
2023-04-18T12:02:30.949Z,147.48
2023-04-18T12:03:31.153Z,148.43
2023-04-18T12:04:31.017Z,153.98
2023-04-18T12:05:31.004Z,147.08
2023-04-18T12:06:30.956Z,156.47
2023-04-18T12:07:30.849Z,157.51
2023-04-18T12:08:30.846Z,155.36
2023-04-18T12:09:30.841Z,158.43
2023-04-18T12:10:30.836Z,147.77
2023-04-18T12:11:30.864Z,153.02
2023-04-18T12:12:30.852Z,151.10
2023-04-18T12:13:30.845Z,148.48
2023-04-18T12:14:30.832Z,158.28
2023-04-18T12:15:30.834Z,164.19
2023-04-18T12:16:30.903Z,165.68
2023-04-18T12:17:30.855Z,162.38
2023-04-18T12:18:30.826Z,159.55
2023-04-18T12:19:30.854Z,159.92
2023-04-18T12:20:30.833Z,161.19
2023-04-18T12:21:30.822Z,162.22
2023-04-18T12:22:30.856Z,168.07
2023-04-18T12:23:30.829Z,159.90
2023-04-18T12:24:30.828Z,161.76
2023-04-18T12:25:30.802Z,160.32
2023-04-18T12:26:30.807Z,161.60
2023-04-18T12:27:30.796Z,164.06
2023-04-18T12:28:30.807Z,160.02
2023-04-18T12:29:30.766Z,161.43
2023-04-18T12:30:30.779Z,164.98
2023-04-18T12:31:30.794Z,168.65
2023-04-18T12:32:30.798Z,178.32